createdAt,value
2022-10-22T00:00:39.844Z,963.77
2022-10-22T00:01:29.834Z,963.72
2022-10-22T00:02:19.909Z,963.77
2022-10-22T00:03:09.844Z,963.78
2022-10-22T00:03:59.803Z,963.76
2022-10-22T00:04:49.794Z,963.76
2022-10-22T00:05:39.863Z,963.74
2022-10-22T00:06:29.775Z,963.66
2022-10-22T00:07:19.763Z,963.65
2022-10-22T00:08:09.754Z,963.63
2022-10-22T00:08:59.804Z,963.58
2022-10-22T00:09:49.733Z,963.58
2022-10-22T00:10:39.735Z,963.63
2022-10-22T00:11:29.733Z,963.65
2022-10-22T00:12:19.733Z,963.65
2022-10-22T00:13:09.725Z,963.64
2022-10-22T00:13:59.692Z,963.66
2022-10-22T00:14:49.674Z,963.64
2022-10-22T00:15:39.672Z,963.65
2022-10-22T00:16:29.662Z,963.67
2022-10-22T00:17:19.673Z,963.64
2022-10-22T00:18:09.642Z,963.65
2022-10-22T00:18:59.641Z,963.62
2022-10-22T00:19:49.629Z,963.60
2022-10-22T00:20:39.613Z,963.59
2022-10-22T00:21:29.612Z,963.52
2022-10-22T00:22:19.603Z,963.50
2022-10-22T00:23:09.613Z,963.45
2022-10-22T00:23:59.581Z,963.40
2022-10-22T00:24:49.569Z,963.44
2022-10-22T00:25:39.561Z,963.37
2022-10-22T00:26:29.543Z,963.38
2022-10-22T00:27:19.552Z,963.37
2022-10-22T00:28:09.533Z,963.38
2022-10-22T00:28:59.552Z,963.41
2022-10-22T00:29:49.513Z,963.42
2022-10-22T00:30:39.515Z,963.41
2022-10-22T00:31:29.495Z,963.45
2022-10-22T00:32:19.494Z,963.47
2022-10-22T00:33:09.472Z,963.42
2022-10-22T00:33:59.470Z,963.45
2022-10-22T00:34:49.494Z,963.47
2022-10-22T00:35:39.455Z,963.47
2022-10-22T00:36:29.443Z,963.49
2022-10-22T00:37:19.433Z,963.49
2022-10-22T00:38:09.417Z,963.51
2022-10-22T00:38:59.414Z,963.51
2022-10-22T00:39:49.401Z,963.61
2022-10-22T00:40:39.612Z,963.59
2022-10-22T00:41:29.381Z,963.66
2022-10-22T00:42:19.383Z,963.64
2022-10-22T00:43:09.367Z,963.68
2022-10-22T00:43:59.360Z,963.70
2022-10-22T00:44:49.339Z,963.70
2022-10-22T00:45:39.343Z,963.70
2022-10-22T00:46:29.350Z,963.66
2022-10-22T00:47:19.320Z,963.70
2022-10-22T00:48:09.314Z,963.68
2022-10-22T00:48:59.308Z,963.67
2022-10-22T00:49:49.298Z,963.63
2022-10-22T00:50:39.287Z,963.63
2022-10-22T00:51:29.271Z,963.63
2022-10-22T00:52:19.294Z,963.64
2022-10-22T00:53:09.259Z,963.71
2022-10-22T00:53:59.239Z,963.77
2022-10-22T00:54:49.231Z,963.78
2022-10-22T00:55:39.230Z,963.80
2022-10-22T00:56:29.214Z,963.73
2022-10-22T00:57:19.280Z,963.67
2022-10-22T00:58:09.198Z,963.63
2022-10-22T00:58:59.230Z,963.60
2022-10-22T00:59:49.180Z,963.63
2022-10-22T01:00:39.205Z,963.73
2022-10-22T01:01:29.367Z,963.81
2022-10-22T01:02:19.169Z,963.87
2022-10-22T01:03:09.138Z,963.89
2022-10-22T01:03:59.137Z,963.87
2022-10-22T01:04:49.139Z,963.87
2022-10-22T01:05:39.120Z,963.87
2022-10-22T01:06:29.106Z,963.83
2022-10-22T01:07:19.304Z,963.83
2022-10-22T01:08:09.091Z,963.88
2022-10-22T01:08:59.102Z,963.89
2022-10-22T01:09:49.087Z,963.96
2022-10-22T01:10:39.059Z,963.91
2022-10-22T01:11:29.042Z,963.89
2022-10-22T01:12:19.037Z,963.85
2022-10-22T01:13:09.046Z,963.88
2022-10-22T01:13:59.030Z,963.89
2022-10-22T01:14:49.006Z,963.96
2022-10-22T01:15:39.011Z,963.94
2022-10-22T01:16:28.987Z,963.98
2022-10-22T01:17:18.978Z,964.01
2022-10-22T01:18:09.000Z,964.02
2022-10-22T01:18:58.957Z,964.00
2022-10-22T01:19:48.962Z,963.99
2022-10-22T01:20:38.942Z,964.01
2022-10-22T01:21:28.939Z,963.96
2022-10-22T01:22:18.927Z,963.95
2022-10-22T01:23:08.925Z,963.93
2022-10-22T01:23:58.931Z,963.92
2022-10-22T01:24:48.900Z,963.89
2022-10-22T01:25:38.886Z,963.95
2022-10-22T01:26:28.879Z,963.97
2022-10-22T01:27:18.866Z,963.99
2022-10-22T01:28:08.865Z,964.02
2022-10-22T01:28:58.850Z,964.07
2022-10-22T01:29:48.869Z,964.07
2022-10-22T01:30:38.826Z,964.09
2022-10-22T01:31:28.825Z,964.12
2022-10-22T01:32:18.805Z,964.08
2022-10-22T01:33:08.809Z,964.06
2022-10-22T01:33:58.786Z,964.05
2022-10-22T01:34:48.785Z,964.04
2022-10-22T01:35:38.810Z,964.02
2022-10-22T01:36:28.766Z,964.04
2022-10-22T01:37:18.757Z,964.05
2022-10-22T01:38:08.747Z,964.02
2022-10-22T01:38:58.739Z,964.04
2022-10-22T01:39:48.735Z,964.03
2022-10-22T01:40:38.715Z,964.00
2022-10-22T01:41:28.950Z,963.95
2022-10-22T01:42:18.706Z,963.96
2022-10-22T01:43:08.695Z,963.92
2022-10-22T01:43:58.674Z,963.93
2022-10-22T01:44:48.679Z,963.92
2022-10-22T01:45:38.659Z,963.95
2022-10-22T01:46:28.656Z,964.01
2022-10-22T01:47:18.657Z,964.03
2022-10-22T01:48:08.635Z,964.00
2022-10-22T01:48:58.619Z,964.06
2022-10-22T01:49:48.616Z,964.10
2022-10-22T01:50:38.605Z,964.13
2022-10-22T01:51:28.629Z,964.15
2022-10-22T01:52:18.600Z,964.26
2022-10-22T01:53:08.583Z,964.24
2022-10-22T01:53:58.565Z,964.21
2022-10-22T01:54:48.554Z,964.26
2022-10-22T01:55:38.545Z,964.32
2022-10-22T01:56:28.534Z,964.36
2022-10-22T01:57:18.546Z,964.38
2022-10-22T01:58:08.523Z,964.37
2022-10-22T01:58:58.504Z,964.38
2022-10-22T01:59:48.505Z,964.41
2022-10-22T02:00:38.612Z,964.43
2022-10-22T02:01:28.485Z,964.39
2022-10-22T02:02:18.467Z,964.43
2022-10-22T02:03:08.486Z,964.38
2022-10-22T02:03:58.456Z,964.34
2022-10-22T02:04:48.443Z,964.35
2022-10-22T02:05:38.463Z,964.27
2022-10-22T02:06:28.423Z,964.26
2022-10-22T02:07:18.414Z,964.17
2022-10-22T02:08:08.412Z,964.09
2022-10-22T02:08:58.435Z,963.99
2022-10-22T02:09:48.395Z,963.98
2022-10-22T02:10:38.375Z,963.95
2022-10-22T02:11:28.395Z,963.96
2022-10-22T02:12:18.356Z,963.99
2022-10-22T02:13:08.354Z,964.07
2022-10-22T02:13:58.334Z,964.14
2022-10-22T02:14:48.334Z,964.20
2022-10-22T02:15:38.328Z,964.20
2022-10-22T02:16:28.319Z,964.22
2022-10-22T02:17:18.514Z,964.19
2022-10-22T02:18:08.293Z,964.16
2022-10-22T02:18:58.285Z,964.18
2022-10-22T02:19:48.273Z,964.07
2022-10-22T02:20:38.266Z,964.08
2022-10-22T02:21:28.256Z,964.03
2022-10-22T02:22:18.242Z,964.03
2022-10-22T02:23:08.261Z,964.03
2022-10-22T02:23:58.234Z,964.07
2022-10-22T02:24:48.224Z,964.07
2022-10-22T02:25:38.250Z,964.07
2022-10-22T02:26:28.204Z,964.15
2022-10-22T02:27:20.725Z,964.14
2022-10-22T02:28:08.182Z,964.15
2022-10-22T02:28:58.175Z,964.17
2022-10-22T02:29:48.170Z,964.19
2022-10-22T02:30:38.155Z,964.15
2022-10-22T02:31:28.412Z,964.21
2022-10-22T02:32:18.158Z,964.18
2022-10-22T02:33:08.132Z,964.19
2022-10-22T02:33:58.121Z,964.17
2022-10-22T02:34:48.104Z,964.14
2022-10-22T02:35:38.102Z,964.08
2022-10-22T02:36:28.092Z,964.05
2022-10-22T02:37:18.118Z,964.00
2022-10-22T02:38:08.103Z,963.94
2022-10-22T02:38:58.056Z,963.90
2022-10-22T02:39:48.053Z,963.86
2022-10-22T02:40:38.042Z,963.82
2022-10-22T02:41:28.036Z,963.81
2022-10-22T02:42:18.021Z,963.82
2022-10-22T02:43:08.232Z,963.81
2022-10-22T02:43:58.012Z,963.82
2022-10-22T02:44:48.014Z,963.84
2022-10-22T02:45:37.983Z,963.89
2022-10-22T02:46:27.973Z,963.93
2022-10-22T02:47:17.971Z,963.98
2022-10-22T02:48:08.000Z,964.06
2022-10-22T02:48:57.963Z,964.07
2022-10-22T02:49:47.940Z,964.08
2022-10-22T02:50:37.952Z,964.04
2022-10-22T02:51:27.919Z,964.06
2022-10-22T02:52:17.913Z,963.98
2022-10-22T02:53:07.901Z,963.96
2022-10-22T02:53:57.882Z,963.97
2022-10-22T02:54:47.882Z,963.94
2022-10-22T02:55:37.871Z,963.94
2022-10-22T02:56:28.080Z,963.98
2022-10-22T02:57:17.916Z,964.02
2022-10-22T02:58:07.842Z,964.05
2022-10-22T02:58:57.831Z,964.04
2022-10-22T02:59:47.821Z,964.02
2022-10-22T03:00:37.852Z,964.00
2022-10-22T03:01:27.812Z,964.01
2022-10-22T03:02:17.828Z,963.95
2022-10-22T03:03:07.790Z,963.93
2022-10-22T03:03:57.785Z,963.95
2022-10-22T03:04:47.781Z,963.90
2022-10-22T03:05:37.766Z,963.89
2022-10-22T03:06:27.755Z,963.89
2022-10-22T03:07:17.771Z,963.86
2022-10-22T03:08:07.739Z,963.84
2022-10-22T03:08:57.752Z,963.83
2022-10-22T03:09:47.722Z,963.91
2022-10-22T03:10:37.703Z,963.87
2022-10-22T03:11:27.698Z,963.82
2022-10-22T03:12:17.680Z,963.82
2022-10-22T03:13:07.886Z,963.78
2022-10-22T03:13:57.683Z,963.74
2022-10-22T03:14:47.658Z,963.75
2022-10-22T03:15:37.654Z,963.73
2022-10-22T03:16:27.654Z,963.70
2022-10-22T03:17:17.629Z,963.72
2022-10-22T03:18:07.619Z,963.79
2022-10-22T03:18:57.629Z,963.79
2022-10-22T03:19:47.599Z,963.81
2022-10-22T03:20:37.597Z,963.86
2022-10-22T03:21:27.582Z,963.86
2022-10-22T03:22:17.584Z,963.88
2022-10-22T03:23:07.569Z,963.87
2022-10-22T03:23:57.549Z,963.89
2022-10-22T03:24:47.570Z,963.93
2022-10-22T03:25:37.541Z,963.92
2022-10-22T03:26:27.528Z,963.92
2022-10-22T03:27:17.518Z,963.93
2022-10-22T03:28:07.511Z,963.92
2022-10-22T03:28:57.519Z,963.92
2022-10-22T03:29:47.487Z,963.87
2022-10-22T03:30:37.477Z,963.88
2022-10-22T03:31:27.479Z,963.89
2022-10-22T03:32:17.462Z,963.88
2022-10-22T03:33:07.469Z,963.89
2022-10-22T03:33:57.440Z,963.83
2022-10-22T03:34:47.527Z,963.85
2022-10-22T03:35:37.424Z,963.85
2022-10-22T03:36:27.419Z,963.86
2022-10-22T03:37:17.406Z,963.94
2022-10-22T03:38:07.400Z,963.93
2022-10-22T03:38:57.388Z,963.86
2022-10-22T03:39:47.413Z,963.82
2022-10-22T03:40:37.619Z,963.80
2022-10-22T03:41:27.360Z,963.76
2022-10-22T03:42:17.350Z,963.73
2022-10-22T03:43:07.341Z,963.76
2022-10-22T03:43:57.327Z,963.76
2022-10-22T03:44:47.317Z,963.75
2022-10-22T03:46:27.516Z,963.75
2022-10-22T03:47:17.287Z,963.83
2022-10-22T03:48:07.287Z,963.85
2022-10-22T03:48:57.274Z,963.89
2022-10-22T03:49:47.267Z,963.84
2022-10-22T03:50:37.256Z,963.82
2022-10-22T03:51:27.247Z,963.86
2022-10-22T03:52:17.438Z,963.86
2022-10-22T03:53:07.227Z,963.84
2022-10-22T03:53:57.214Z,963.84
2022-10-22T03:54:47.231Z,963.82
2022-10-22T03:55:37.196Z,963.85
2022-10-22T03:56:27.217Z,963.84
2022-10-22T03:57:17.178Z,963.85
2022-10-22T03:58:07.168Z,963.89
2022-10-22T03:58:57.156Z,963.86
2022-10-22T03:59:47.157Z,963.88
2022-10-22T04:00:37.149Z,963.90
2022-10-22T04:01:27.231Z,963.91
2022-10-22T04:02:17.328Z,963.91
2022-10-22T04:03:07.117Z,963.89
2022-10-22T04:03:57.314Z,963.89
2022-10-22T04:04:47.103Z,963.85
2022-10-22T04:05:37.086Z,963.90
2022-10-22T04:06:27.076Z,963.88
2022-10-22T04:07:17.075Z,963.91
2022-10-22T04:08:07.085Z,963.92
2022-10-22T04:08:57.089Z,963.90
2022-10-22T04:09:47.246Z,963.92
2022-10-22T04:10:37.035Z,963.93
2022-10-22T04:11:27.025Z,963.93
2022-10-22T04:12:17.006Z,963.99
2022-10-22T04:13:07.002Z,964.01
2022-10-22T04:13:56.986Z,964.04
2022-10-22T04:14:46.983Z,964.08
2022-10-22T04:15:37.028Z,964.11
2022-10-22T04:16:28.746Z,964.08
2022-10-22T04:17:16.956Z,964.11
2022-10-22T04:18:06.947Z,964.07
2022-10-22T04:18:56.928Z,964.12
2022-10-22T04:19:46.923Z,964.12
2022-10-22T04:20:36.913Z,964.11
2022-10-22T04:21:26.926Z,964.11
2022-10-22T04:22:16.897Z,964.11
2022-10-22T04:23:06.894Z,964.11
2022-10-22T04:23:56.904Z,964.12
2022-10-22T04:24:46.900Z,964.15
2022-10-22T04:25:36.855Z,964.14
2022-10-22T04:26:26.862Z,964.11
2022-10-22T04:27:16.834Z,964.09
2022-10-22T04:28:06.830Z,964.05
2022-10-22T04:28:56.816Z,964.06
2022-10-22T04:29:46.833Z,964.14
2022-10-22T04:30:36.795Z,964.09
2022-10-22T04:31:26.792Z,964.09
2022-10-22T04:32:16.785Z,964.09
2022-10-22T04:33:06.773Z,964.05
2022-10-22T04:33:56.762Z,964.02
2022-10-22T04:34:46.756Z,964.02
2022-10-22T04:35:36.770Z,964.04
2022-10-22T04:36:26.748Z,964.05
2022-10-22T04:37:16.723Z,964.02
2022-10-22T04:38:06.742Z,964.02
2022-10-22T04:38:56.704Z,964.02
2022-10-22T04:39:46.693Z,964.05
2022-10-22T04:40:36.710Z,964.08
2022-10-22T04:41:26.681Z,964.08
2022-10-22T04:42:16.671Z,964.04
2022-10-22T04:43:06.663Z,964.03
2022-10-22T04:43:56.666Z,964.05
2022-10-22T04:44:46.656Z,963.99
2022-10-22T04:45:36.642Z,964.00
2022-10-22T04:46:26.643Z,963.97
2022-10-22T04:47:16.613Z,964.04
2022-10-22T04:48:06.613Z,963.98
2022-10-22T04:48:56.592Z,964.02
2022-10-22T04:49:46.591Z,964.00
2022-10-22T04:50:36.783Z,964.00
2022-10-22T04:51:26.565Z,964.02
2022-10-22T04:52:16.562Z,964.07
2022-10-22T04:53:06.541Z,964.02
2022-10-22T04:53:56.542Z,964.07
2022-10-22T04:54:46.531Z,964.09
2022-10-22T04:55:36.520Z,964.10
2022-10-22T04:56:26.759Z,964.11
2022-10-22T04:57:16.504Z,964.11
2022-10-22T04:58:06.492Z,964.19
2022-10-22T04:58:56.484Z,964.15
2022-10-22T04:59:46.471Z,964.15
2022-10-22T05:00:36.484Z,964.12
2022-10-22T05:01:26.512Z,964.11
2022-10-22T05:02:16.689Z,964.11
2022-10-22T05:03:06.433Z,964.10
2022-10-22T05:03:56.432Z,964.11
2022-10-22T05:04:46.415Z,964.10
2022-10-22T05:05:36.411Z,964.11
2022-10-22T05:06:26.397Z,964.17
2022-10-22T05:07:16.394Z,964.21
2022-10-22T05:08:06.592Z,964.22
2022-10-22T05:08:56.429Z,964.31
2022-10-22T05:09:46.350Z,964.30
2022-10-22T05:10:36.352Z,964.27
2022-10-22T05:11:26.334Z,964.35
2022-10-22T05:12:16.332Z,964.33
2022-10-22T05:13:06.321Z,964.32
2022-10-22T05:13:56.329Z,964.34
2022-10-22T05:14:46.298Z,964.36
2022-10-22T05:15:36.289Z,964.37
2022-10-22T05:16:26.280Z,964.38
2022-10-22T05:17:16.269Z,964.40
2022-10-22T05:18:06.260Z,964.37
2022-10-22T05:18:56.258Z,964.36
2022-10-22T05:19:46.449Z,964.35
2022-10-22T05:20:36.238Z,964.37
2022-10-22T05:21:26.220Z,964.42
2022-10-22T05:22:16.218Z,964.39
2022-10-22T05:23:06.198Z,964.43
2022-10-22T05:23:56.197Z,964.40
2022-10-22T05:24:46.191Z,964.44
2022-10-22T05:25:36.218Z,964.41
2022-10-22T05:26:26.171Z,964.43
2022-10-22T05:27:16.216Z,964.43
2022-10-22T05:28:06.148Z,964.40
2022-10-22T05:28:56.147Z,964.44
2022-10-22T05:29:46.129Z,964.45
2022-10-22T05:30:36.127Z,964.46
2022-10-22T05:31:26.318Z,964.44
2022-10-22T05:32:16.105Z,964.38
2022-10-22T05:33:06.088Z,964.37
2022-10-22T05:33:56.096Z,964.37
2022-10-22T05:34:46.068Z,964.35
2022-10-22T05:35:36.067Z,964.39
2022-10-22T05:36:26.051Z,964.38
2022-10-22T05:37:16.079Z,964.36
2022-10-22T05:38:06.030Z,964.39
2022-10-22T05:38:56.039Z,964.44
2022-10-22T05:39:46.018Z,964.42
2022-10-22T05:40:36.017Z,964.45
2022-10-22T05:41:25.996Z,964.45
2022-10-22T05:42:15.988Z,964.52
2022-10-22T05:43:06.186Z,964.51
2022-10-22T05:43:55.966Z,964.49
2022-10-22T05:44:45.962Z,964.45
2022-10-22T05:45:35.957Z,964.51
2022-10-22T05:46:25.945Z,964.53
2022-10-22T05:47:15.937Z,964.51
2022-10-22T05:48:05.928Z,964.49
2022-10-22T05:48:55.951Z,964.52
2022-10-22T05:49:45.900Z,964.52
2022-10-22T05:50:35.896Z,964.53
2022-10-22T05:51:25.884Z,964.55
2022-10-22T05:52:15.877Z,964.57
2022-10-22T05:53:05.866Z,964.59
2022-10-22T05:53:55.855Z,964.59
2022-10-22T05:54:46.045Z,964.59
2022-10-22T05:55:35.842Z,964.59
2022-10-22T05:56:25.827Z,964.59
2022-10-22T05:57:15.817Z,964.61
2022-10-22T05:58:05.816Z,964.65
2022-10-22T05:58:55.814Z,964.66
2022-10-22T05:59:45.877Z,964.71
2022-10-22T06:00:35.786Z,964.68
2022-10-22T06:01:25.766Z,964.70
2022-10-22T06:02:15.807Z,964.69
2022-10-22T06:03:05.756Z,964.69
2022-10-22T06:03:55.747Z,964.63
2022-10-22T06:04:45.734Z,964.62
2022-10-22T06:05:35.755Z,964.62
2022-10-22T06:06:25.716Z,964.57
2022-10-22T06:07:15.708Z,964.63
2022-10-22T06:08:05.694Z,964.66
2022-10-22T06:08:55.747Z,964.63
2022-10-22T06:09:45.677Z,964.67
2022-10-22T06:10:35.675Z,964.69
2022-10-22T06:11:25.687Z,964.71
2022-10-22T06:12:15.653Z,964.78
2022-10-22T06:13:05.644Z,964.83
2022-10-22T06:13:55.637Z,964.84
2022-10-22T06:14:45.625Z,964.87
2022-10-22T06:15:35.613Z,964.91
2022-10-22T06:16:25.608Z,964.93
2022-10-22T06:17:15.804Z,964.92
2022-10-22T06:18:05.587Z,964.94
2022-10-22T06:18:55.584Z,965.00
2022-10-22T06:19:45.563Z,965.01
2022-10-22T06:20:35.562Z,965.04
2022-10-22T06:21:25.547Z,965.00
2022-10-22T06:22:15.569Z,965.02
2022-10-22T06:23:05.863Z,965.03
2022-10-22T06:23:55.522Z,965.05
2022-10-22T06:24:45.529Z,965.05
2022-10-22T06:25:35.503Z,965.08
2022-10-22T06:26:25.490Z,965.10
2022-10-22T06:27:15.485Z,965.12
2022-10-22T06:28:05.470Z,965.12
2022-10-22T06:28:55.492Z,965.12
2022-10-22T06:29:45.450Z,965.11
2022-10-22T06:30:35.446Z,965.16
2022-10-22T06:31:25.438Z,965.15
2022-10-22T06:32:15.425Z,965.20
2022-10-22T06:33:05.415Z,965.20
2022-10-22T06:33:55.414Z,965.22
2022-10-22T06:34:45.413Z,965.24
2022-10-22T06:35:35.382Z,965.28
2022-10-22T06:36:25.377Z,965.33
2022-10-22T06:37:15.372Z,965.34
2022-10-22T06:38:05.354Z,965.38
2022-10-22T06:38:55.414Z,965.38
2022-10-22T06:39:45.339Z,965.44
2022-10-22T06:40:35.361Z,965.43
2022-10-22T06:41:28.586Z,965.44
2022-10-22T06:42:15.315Z,965.46
2022-10-22T06:43:05.302Z,965.47
2022-10-22T06:43:55.321Z,965.49
2022-10-22T06:44:45.312Z,965.49
2022-10-22T06:45:35.275Z,965.49
2022-10-22T06:46:25.971Z,965.48
2022-10-22T06:47:15.264Z,965.47
2022-10-22T06:48:05.251Z,965.44
2022-10-22T06:48:55.247Z,965.45
2022-10-22T06:49:45.222Z,965.44
2022-10-22T06:50:35.220Z,965.46
2022-10-22T06:51:25.210Z,965.48
2022-10-22T06:52:15.223Z,965.46
2022-10-22T06:53:05.189Z,965.48
2022-10-22T06:53:55.189Z,965.44
2022-10-22T06:54:45.203Z,965.47
2022-10-22T06:55:35.167Z,965.43
2022-10-22T06:56:25.159Z,965.44
2022-10-22T06:57:15.152Z,965.49
2022-10-22T06:58:05.137Z,965.45
2022-10-22T06:58:55.132Z,965.46
2022-10-22T06:59:45.110Z,965.45
2022-10-22T07:00:35.313Z,965.54
2022-10-22T07:01:25.229Z,965.53
2022-10-22T07:02:15.449Z,965.49
2022-10-22T07:03:05.069Z,965.52
2022-10-22T07:03:55.070Z,965.54
2022-10-22T07:04:45.062Z,965.54
2022-10-22T07:05:35.054Z,965.53
2022-10-22T07:06:25.249Z,965.50
2022-10-22T07:07:15.039Z,965.52
2022-10-22T07:08:05.028Z,965.54
2022-10-22T07:08:55.168Z,965.53
2022-10-22T07:09:45.005Z,965.54
2022-10-22T07:10:34.997Z,965.53
2022-10-22T07:11:24.989Z,965.53
2022-10-22T07:12:14.996Z,965.57
2022-10-22T07:13:04.960Z,965.54
2022-10-22T07:13:54.958Z,965.58
2022-10-22T07:14:44.956Z,965.55
2022-10-22T07:15:34.942Z,965.55
2022-10-22T07:16:29.516Z,965.55
2022-10-22T07:17:15.956Z,965.56
2022-10-22T07:18:04.910Z,965.56
2022-10-22T07:18:54.908Z,965.55
2022-10-22T07:19:48.427Z,965.55
2022-10-22T07:20:35.881Z,965.60
2022-10-22T07:21:24.869Z,965.60
2022-10-22T07:22:14.864Z,965.64
2022-10-22T07:23:04.873Z,965.60
2022-10-22T07:23:54.850Z,965.64
2022-10-22T07:24:44.832Z,965.64
2022-10-22T07:25:34.820Z,965.63
2022-10-22T07:26:24.817Z,965.63
2022-10-22T07:27:14.804Z,965.64
2022-10-22T07:28:04.789Z,965.71
2022-10-22T07:28:54.810Z,965.64
2022-10-22T07:29:44.781Z,965.70
2022-10-22T07:30:34.766Z,965.73
2022-10-22T07:31:24.747Z,965.77
2022-10-22T07:32:14.768Z,965.76
2022-10-22T07:33:04.737Z,965.82
2022-10-22T07:33:54.737Z,965.85
2022-10-22T07:34:44.725Z,965.83
2022-10-22T07:35:34.740Z,965.83
2022-10-22T07:36:24.702Z,965.81
2022-10-22T07:37:14.688Z,965.82
2022-10-22T07:38:05.422Z,965.85
2022-10-22T07:38:54.677Z,965.85
2022-10-22T07:39:44.657Z,965.81
2022-10-22T07:40:34.660Z,965.82
2022-10-22T07:41:24.646Z,965.82
2022-10-22T07:42:14.640Z,965.81
2022-10-22T07:43:04.620Z,965.81
2022-10-22T07:43:54.636Z,965.87
2022-10-22T07:44:44.711Z,965.85
2022-10-22T07:45:34.611Z,965.86
2022-10-22T07:46:24.586Z,965.89
2022-10-22T07:47:14.576Z,965.86
2022-10-22T07:48:04.566Z,965.89
2022-10-22T07:48:54.575Z,965.89
2022-10-22T07:49:44.707Z,965.88
2022-10-22T07:50:34.586Z,965.90
2022-10-22T07:51:24.526Z,965.91
2022-10-22T07:52:14.527Z,965.91
2022-10-22T07:53:04.516Z,965.95
2022-10-22T07:53:54.513Z,965.92
2022-10-22T07:54:44.503Z,965.96
2022-10-22T07:55:34.532Z,965.95
2022-10-22T07:56:24.486Z,965.97
2022-10-22T07:57:14.476Z,965.94
2022-10-22T07:58:04.457Z,965.98
2022-10-22T07:58:54.488Z,966.02
2022-10-22T07:59:44.556Z,966.06
2022-10-22T08:00:34.434Z,966.02
2022-10-22T08:01:24.647Z,966.02
2022-10-22T08:02:14.422Z,965.96
2022-10-22T08:03:04.396Z,966.02
2022-10-22T08:03:54.394Z,965.98
2022-10-22T08:04:44.519Z,966.04
2022-10-22T08:05:34.384Z,966.01
2022-10-22T08:06:24.355Z,966.03
2022-10-22T08:07:14.432Z,966.01
2022-10-22T08:08:04.346Z,965.97
2022-10-22T08:08:54.385Z,966.00
2022-10-22T08:09:44.421Z,965.98
2022-10-22T08:10:34.335Z,965.99
2022-10-22T08:11:24.315Z,965.99
2022-10-22T08:12:14.317Z,965.96
2022-10-22T08:13:05.396Z,965.97
2022-10-22T08:13:54.284Z,965.97
2022-10-22T08:14:44.287Z,965.91
2022-10-22T08:15:34.354Z,965.95
2022-10-22T08:16:24.255Z,965.98
2022-10-22T08:17:14.246Z,965.96
2022-10-22T08:18:04.236Z,965.95
2022-10-22T08:18:54.262Z,965.91
2022-10-22T08:19:44.225Z,965.95
2022-10-22T08:20:34.225Z,965.92
2022-10-22T08:21:24.193Z,965.93
2022-10-22T08:22:14.197Z,965.95
2022-10-22T08:23:04.183Z,965.97
2022-10-22T08:23:54.198Z,965.90
2022-10-22T08:24:44.463Z,965.96
2022-10-22T08:25:34.160Z,965.91
2022-10-22T08:26:24.153Z,965.98
2022-10-22T08:27:14.132Z,965.94
2022-10-22T08:28:04.134Z,965.93
2022-10-22T08:28:54.122Z,965.94
2022-10-22T08:29:44.114Z,965.95
2022-10-22T08:30:34.323Z,966.00
2022-10-22T08:31:24.092Z,965.98
2022-10-22T08:32:14.098Z,966.00
2022-10-22T08:33:04.094Z,966.01
2022-10-22T08:33:54.072Z,965.98
2022-10-22T08:34:44.062Z,965.98
2022-10-22T08:35:34.042Z,965.97
2022-10-22T08:36:24.073Z,965.99
2022-10-22T08:37:14.027Z,965.99
2022-10-22T08:38:04.022Z,965.99
2022-10-22T08:38:54.002Z,965.99
2022-10-22T08:39:44.011Z,965.95
2022-10-22T08:40:33.992Z,965.96
2022-10-22T08:41:23.988Z,966.01
2022-10-22T08:42:14.672Z,966.02
2022-10-22T08:43:03.964Z,966.05
2022-10-22T08:43:53.954Z,965.97
2022-10-22T08:44:43.951Z,966.03
2022-10-22T08:45:33.948Z,966.04
2022-10-22T08:46:23.933Z,966.05
2022-10-22T08:47:17.425Z,966.03
2022-10-22T08:48:05.404Z,965.99
2022-10-22T08:48:54.045Z,966.02
2022-10-22T08:49:43.891Z,966.04
2022-10-22T08:50:33.882Z,966.03
2022-10-22T08:51:23.882Z,966.03
2022-10-22T08:52:13.860Z,965.99
2022-10-22T08:53:03.866Z,966.01
2022-10-22T08:53:53.891Z,966.02
2022-10-22T08:54:43.852Z,966.04
2022-10-22T08:55:36.602Z,966.08
2022-10-22T08:56:23.830Z,966.10
2022-10-22T08:57:13.810Z,966.09
2022-10-22T08:58:03.802Z,966.08
2022-10-22T08:58:53.791Z,966.05
2022-10-22T08:59:43.810Z,966.05
2022-10-22T09:00:33.776Z,966.03
2022-10-22T09:01:23.768Z,966.02
2022-10-22T09:02:13.751Z,966.07
2022-10-22T09:03:03.751Z,966.05
2022-10-22T09:03:53.738Z,966.11
2022-10-22T09:04:43.737Z,966.07
2022-10-22T09:05:33.752Z,966.07
2022-10-22T09:06:23.712Z,966.10
2022-10-22T09:07:13.699Z,966.08
2022-10-22T09:08:03.691Z,966.08
2022-10-22T09:08:53.720Z,966.04
2022-10-22T09:09:43.669Z,966.12
2022-10-22T09:10:33.661Z,966.11
2022-10-22T09:11:23.680Z,966.10
2022-10-22T09:12:17.733Z,966.17
2022-10-22T09:13:04.670Z,966.15
2022-10-22T09:13:53.648Z,966.17
2022-10-22T09:14:43.619Z,966.17
2022-10-22T09:15:33.609Z,966.18
2022-10-22T09:16:23.599Z,966.15
2022-10-22T09:17:13.591Z,966.18
2022-10-22T09:18:03.590Z,966.19
2022-10-22T09:18:53.573Z,966.20
2022-10-22T09:19:43.608Z,966.20
2022-10-22T09:20:33.549Z,966.22
2022-10-22T09:21:23.556Z,966.26
2022-10-22T09:22:13.530Z,966.27
2022-10-22T09:23:03.529Z,966.27
2022-10-22T09:23:53.520Z,966.23
2022-10-22T09:24:43.510Z,966.24
2022-10-22T09:25:33.828Z,966.24
2022-10-22T09:26:23.498Z,966.25
2022-10-22T09:27:13.478Z,966.26
2022-10-22T09:28:03.482Z,966.28
2022-10-22T09:28:53.679Z,966.30
2022-10-22T09:29:43.458Z,966.28
2022-10-22T09:30:33.453Z,966.22
2022-10-22T09:31:23.441Z,966.24
2022-10-22T09:32:13.427Z,966.30
2022-10-22T09:33:03.427Z,966.27
2022-10-22T09:33:53.409Z,966.33
2022-10-22T09:34:43.630Z,966.33
2022-10-22T09:35:33.388Z,966.33
2022-10-22T09:36:23.385Z,966.31
2022-10-22T09:37:13.375Z,966.33
2022-10-22T09:38:03.368Z,966.32
2022-10-22T09:38:53.362Z,966.29
2022-10-22T09:39:43.363Z,966.33
2022-10-22T09:40:33.557Z,966.31
2022-10-22T09:41:23.339Z,966.32
2022-10-22T09:42:13.317Z,966.30
2022-10-22T09:43:03.317Z,966.32
2022-10-22T09:43:53.312Z,966.33
2022-10-22T09:44:46.171Z,966.33
2022-10-22T09:45:33.288Z,966.31
2022-10-22T09:46:23.349Z,966.30
2022-10-22T09:47:13.267Z,966.34
2022-10-22T09:48:03.327Z,966.34
2022-10-22T09:48:53.247Z,966.35
2022-10-22T09:49:43.244Z,966.36
2022-10-22T09:50:33.228Z,966.36
2022-10-22T09:51:23.227Z,966.36
2022-10-22T09:52:13.246Z,966.35
2022-10-22T09:53:03.209Z,966.37
2022-10-22T09:53:53.193Z,966.41
2022-10-22T09:54:43.187Z,966.42
2022-10-22T09:55:33.178Z,966.43
2022-10-22T09:56:23.167Z,966.35
2022-10-22T09:57:13.156Z,966.41
2022-10-22T09:58:03.169Z,966.42
2022-10-22T09:58:53.137Z,966.37
2022-10-22T09:59:43.370Z,966.40
2022-10-22T10:00:33.125Z,966.48
2022-10-22T10:01:23.116Z,966.45
2022-10-22T10:02:19.956Z,966.45
2022-10-22T10:03:04.137Z,966.51
2022-10-22T10:03:53.088Z,966.46
2022-10-22T10:04:43.085Z,966.53
2022-10-22T10:05:33.116Z,966.50
2022-10-22T10:06:23.067Z,966.52
2022-10-22T10:07:13.047Z,966.51
2022-10-22T10:08:03.047Z,966.48
2022-10-22T10:08:53.113Z,966.48
2022-10-22T10:09:43.036Z,966.47
2022-10-22T10:10:33.019Z,966.46
2022-10-22T10:11:26.773Z,966.43
2022-10-22T10:12:14.004Z,966.50
2022-10-22T10:13:03.001Z,966.47
2022-10-22T10:13:52.977Z,966.47
2022-10-22T10:14:42.977Z,966.48
2022-10-22T10:15:32.966Z,966.49
2022-10-22T10:16:22.964Z,966.47
2022-10-22T10:17:12.975Z,966.48
2022-10-22T10:18:02.943Z,966.49
2022-10-22T10:18:52.935Z,966.49
2022-10-22T10:19:42.926Z,966.50
2022-10-22T10:20:32.915Z,966.47
2022-10-22T10:21:22.915Z,966.49
2022-10-22T10:22:12.920Z,966.53
2022-10-22T10:23:02.923Z,966.54
2022-10-22T10:23:52.885Z,966.55
2022-10-22T10:24:42.875Z,966.52